Ernesto Cortissoz International Airport
SKBQ : now visible

Airfield :











YOU CAN JOIN US ON...

 
LOGIN :

Register | Disclaimer

   EN    FR    IT 

 









Legend :    VFR   Marginal VFR   IFR   Intensive IFR   Very Intensive IFR
Visi :
Ceiling :
>= 8 km
>= 3000ft
5 to 8 km
1000 to 3000 ft
1500m to 5 km
500 to 1000 ft
800 to 1500m
200 to 500 ft
< 800m
< 200 ft
Symbols :   Thunderstorms  Fog  Heavy snow  Heavy precipitations  Wind > 20 kt






- Airport Elevation : 98 ft
- IATA code : BAQ


SKBQ - Ernesto Cortissoz International

CURRENT METAR :
  • 152000Z 36010KT 340V040 9999 FEW016 31/24 A2979 NOSIG

EXPIRED METARs :
  • 151900Z 01008KT 320V030 9999 FEW017 32/25 A2981 NOSIG
  • 151800Z 01008KT 330V050 9999 SCT017 32/24 A2984 NOSIG

TAF TAF SKBQ
Valid from the 15 at 18:00 until the 16 at 18:00 UTC


151630Z 1518/1618 01009KT 9999 SCT016
TEMPO 1610/1612 5000 BCFG SCT012 TX34/1518Z TN25/1610Z



MET'MAP, your aeronautical weather chart ! - Copyright ORBIFLY December 2007 - Disclaimer

ORBIFLY MET'MAP TEAM :

Programming & Development : Alexandra Zaïnal
Concept & original design : Baudouin d'Aumeries
Assistance for programming : Marc-Olivier Méhu
Technical & hardware support : Manuel Goepfert

Contact : metmap@orbifly.com




SOURCES & CREDITS :

   NOAA       Earth
Advisory